sensor_id;sensor_type;location;lat;lon;timestamp;pressure;altitude;pressure_sealevel;temperature;humidity
21644;BME280;10983;51.982;9.226;2022-10-31T00:01:27;65387.91;;;-139.23;100.00
21644;BME280;10983;51.982;9.226;2022-10-31T00:03:56;65387.91;;;-139.23;100.00
21644;BME280;10983;51.982;9.226;2022-10-31T00:06:24;65387.91;;;-139.23;100.00
21644;BME280;10983;51.982;9.226;2022-10-31T00:08:54;65387.91;;;-139.23;100.00
21644;BME280;10983;51.982;9.226;2022-10-31T00:11:24;65387.91;;;-139.23;100.00
21644;BME280;10983;51.982;9.226;2022-10-31T00:13:52;65387.91;;;-139.23;100.00
21644;BME280;10983;51.982;9.226;2022-10-31T00:16:21;65387.91;;;-139.23;100.00
21644;BME280;10983;51.982;9.226;2022-10-31T00:18:49;65387.91;;;-139.23;100.00
21644;BME280;10983;51.982;9.226;2022-10-31T00:21:17;65387.91;;;-139.23;100.00
21644;BME280;10983;51.982;9.226;2022-10-31T00:23:45;65387.91;;;-139.23;100.00
21644;BME280;10983;51.982;9.226;2022-10-31T00:26:12;65387.91;;;-139.23;100.00
21644;BME280;10983;51.982;9.226;2022-10-31T00:28:41;65387.91;;;-139.23;100.00
21644;BME280;10983;51.982;9.226;2022-10-31T00:31:10;65387.91;;;-139.23;100.00
21644;BME280;10983;51.982;9.226;2022-10-31T00:33:39;65387.91;;;-139.23;100.00
21644;BME280;10983;51.982;9.226;2022-10-31T00:36:10;65387.91;;;-139.23;100.00
21644;BME280;10983;51.982;9.226;2022-10-31T00:38:39;65387.91;;;-139.23;100.00
21644;BME280;10983;51.982;9.226;2022-10-31T00:41:06;65387.91;;;-139.23;100.00
21644;BME280;10983;51.982;9.226;2022-10-31T00:43:34;65387.91;;;-139.23;100.00
21644;BME280;10983;51.982;9.226;2022-10-31T00:46:03;65387.91;;;-139.23;100.00
21644;BME280;10983;51.982;9.226;2022-10-31T00:48:31;65387.91;;;-139.23;100.00
21644;BME280;10983;51.982;9.226;2022-10-31T00:50:58;65387.91;;;-139.23;100.00
21644;BME280;10983;51.982;9.226;2022-10-31T00:53:26;65387.91;;;-139.23;100.00
21644;BME280;10983;51.982;9.226;2022-10-31T00:55:53;65387.91;;;-139.23;100.00
21644;BME280;10983;51.982;9.226;2022-10-31T00:58:21;65387.91;;;-139.23;100.00
21644;BME280;10983;51.982;9.226;2022-10-31T01:00:49;65387.91;;;-139.23;100.00
21644;BME280;10983;51.982;9.226;2022-10-31T01:03:23;65387.91;;;-139.23;100.00
21644;BME280;10983;51.982;9.226;2022-10-31T01:05:58;65387.91;;;-139.23;100.00
21644;BME280;10983;51.982;9.226;2022-10-31T01:08:27;65387.91;;;-139.23;100.00
21644;BME280;10983;51.982;9.226;2022-10-31T01:11:03;65387.91;;;-139.23;100.00
21644;BME280;10983;51.982;9.226;2022-10-31T01:13:31;65387.91;;;-139.23;100.00
21644;BME280;10983;51.982;9.226;2022-10-31T01:15:59;65387.91;;;-139.23;100.00
21644;BME280;10983;51.982;9.226;2022-10-31T01:19:08;65387.91;;;-139.23;100.00
21644;BME280;10983;51.982;9.226;2022-10-31T01:21:41;65387.91;;;-139.23;100.00
21644;BME280;10983;51.982;9.226;2022-10-31T01:24:17;65387.91;;;-139.23;100.00
21644;BME280;10983;51.982;9.226;2022-10-31T01:27:13;65387.91;;;-139.23;100.00
21644;BME280;10983;51.982;9.226;2022-10-31T01:30:21;65387.91;;;-139.23;100.00
21644;BME280;10983;51.982;9.226;2022-10-31T01:32:54;65387.91;;;-139.23;100.00
21644;BME280;10983;51.982;9.226;2022-10-31T01:35:23;65387.91;;;-139.23;100.00
21644;BME280;10983;51.982;9.226;2022-10-31T01:37:55;65387.91;;;-139.23;100.00
21644;BME280;10983;51.982;9.226;2022-10-31T01:40:32;65387.91;;;-139.23;100.00
21644;BME280;10983;51.982;9.226;2022-10-31T01:42:59;65387.91;;;-139.23;100.00
21644;BME280;10983;51.982;9.226;2022-10-31T01:45:38;65387.91;;;-139.23;100.00
21644;BME280;10983;51.982;9.226;2022-10-31T01:49:00;65387.91;;;-139.23;100.00
21644;BME280;10983;51.982;9.226;2022-10-31T01:52:32;65387.91;;;-139.23;100.00
21644;BME280;10983;51.982;9.226;2022-10-31T01:55:59;65387.91;;;-139.23;100.00
21644;BME280;10983;51.982;9.226;2022-10-31T01:59:29;65387.91;;;-139.23;100.00
21644;BME280;10983;51.982;9.226;2022-10-31T02:02:56;65387.91;;;-139.23;100.00
21644;BME280;10983;51.982;9.226;2022-10-31T02:06:27;65387.91;;;-139.23;100.00
21644;BME280;10983;51.982;9.226;2022-10-31T02:10:00;65387.91;;;-139.23;100.00
21644;BME280;10983;51.982;9.226;2022-10-31T02:13:29;65387.91;;;-139.23;100.00
21644;BME280;10983;51.982;9.226;2022-10-31T02:16:56;65387.91;;;-139.23;100.00
21644;BME280;10983;51.982;9.226;2022-10-31T02:20:22;65387.91;;;-139.23;100.00
21644;BME280;10983;51.982;9.226;2022-10-31T02:24:17;65387.91;;;-139.23;100.00
21644;BME280;10983;51.982;9.226;2022-10-31T02:27:57;65387.91;;;-139.23;100.00
21644;BME280;10983;51.982;9.226;2022-10-31T02:31:36;65387.91;;;-139.23;100.00
21644;BME280;10983;51.982;9.226;2022-10-31T02:34:52;65387.91;;;-139.23;100.00
21644;BME280;10983;51.982;9.226;2022-10-31T02:37:25;65387.91;;;-139.23;0.00
21644;BME280;10983;51.982;9.226;2022-10-31T02:40:00;65387.91;;;-139.23;100.00
21644;BME280;10983;51.982;9.226;2022-10-31T02:42:34;65387.91;;;-139.23;100.00
21644;BME280;10983;51.982;9.226;2022-10-31T02:45:08;65387.91;;;-139.23;100.00
21644;BME280;10983;51.982;9.226;2022-10-31T02:47:41;65387.91;;;-139.23;100.00
21644;BME280;10983;51.982;9.226;2022-10-31T02:50:14;65387.91;;;-139.23;100.00
21644;BME280;10983;51.982;9.226;2022-10-31T02:52:42;65387.91;;;-139.23;100.00
21644;BME280;10983;51.982;9.226;2022-10-31T02:55:12;65387.91;;;-139.23;100.00
21644;BME280;10983;51.982;9.226;2022-10-31T02:57:42;65387.91;;;-139.23;100.00
21644;BME280;10983;51.982;9.226;2022-10-31T03:00:10;65387.91;;;-139.23;100.00
21644;BME280;10983;51.982;9.226;2022-10-31T03:02:56;65387.91;;;-139.23;100.00
21644;BME280;10983;51.982;9.226;2022-10-31T03:05:43;65387.91;;;-139.23;100.00
21644;BME280;10983;51.982;9.226;2022-10-31T03:08:16;65387.91;;;-139.23;100.00
21644;BME280;10983;51.982;9.226;2022-10-31T03:10:53;65387.91;;;-139.23;100.00
21644;BME280;10983;51.982;9.226;2022-10-31T03:13:31;65387.91;;;-139.23;100.00
21644;BME280;10983;51.982;9.226;2022-10-31T03:16:06;65387.91;;;-139.23;100.00
21644;BME280;10983;51.982;9.226;2022-10-31T03:18:40;65387.91;;;-139.23;100.00
21644;BME280;10983;51.982;9.226;2022-10-31T03:21:10;65387.91;;;-139.23;100.00
21644;BME280;10983;51.982;9.226;2022-10-31T03:23:41;65387.91;;;-139.23;100.00
21644;BME280;10983;51.982;9.226;2022-10-31T03:26:12;65387.91;;;-139.23;100.00
21644;BME280;10983;51.982;9.226;2022-10-31T03:28:47;65387.91;;;-139.23;100.00
21644;BME280;10983;51.982;9.226;2022-10-31T03:31:43;65387.91;;;-139.23;100.00
21644;BME280;10983;51.982;9.226;2022-10-31T03:34:33;65387.91;;;-139.23;100.00
21644;BME280;10983;51.982;9.226;2022-10-31T03:37:10;65387.91;;;-139.23;100.00
21644;BME280;10983;51.982;9.226;2022-10-31T03:39:41;65387.91;;;-139.23;100.00
21644;BME280;10983;51.982;9.226;2022-10-31T03:42:15;65387.91;;;-139.23;100.00
21644;BME280;10983;51.982;9.226;2022-10-31T03:44:53;65387.91;;;-139.23;100.00
21644;BME280;10983;51.982;9.226;2022-10-31T03:47:36;65387.91;;;-139.23;100.00
21644;BME280;10983;51.982;9.226;2022-10-31T03:50:13;65387.91;;;-139.23;100.00
21644;BME280;10983;51.982;9.226;2022-10-31T03:52:54;65387.91;;;-139.23;100.00
21644;BME280;10983;51.982;9.226;2022-10-31T03:55:38;65387.91;;;-139.23;100.00
21644;BME280;10983;51.982;9.226;2022-10-31T03:58:15;65387.91;;;-139.23;100.00
21644;BME280;10983;51.982;9.226;2022-10-31T04:00:57;65387.91;;;-139.23;100.00
21644;BME280;10983;51.982;9.226;2022-10-31T04:03:34;65387.91;;;-139.23;100.00
21644;BME280;10983;51.982;9.226;2022-10-31T04:06:23;65387.91;;;-139.23;100.00
21644;BME280;10983;51.982;9.226;2022-10-31T04:08:58;65387.91;;;-139.23;100.00
21644;BME280;10983;51.982;9.226;2022-10-31T04:11:35;65387.91;;;-139.23;100.00
21644;BME280;10983;51.982;9.226;2022-10-31T04:14:36;65387.91;;;-139.23;100.00
21644;BME280;10983;51.982;9.226;2022-10-31T04:17:17;65387.91;;;-139.23;100.00
21644;BME280;10983;51.982;9.226;2022-10-31T04:19:55;65387.91;;;-139.23;100.00
21644;BME280;10983;51.982;9.226;2022-10-31T04:22:28;65387.91;;;-139.23;100.00
21644;BME280;10983;51.982;9.226;2022-10-31T04:24:56;65387.91;;;-139.23;100.00
21644;BME280;10983;51.982;9.226;2022-10-31T04:27:26;65387.91;;;-139.23;100.00
21644;BME280;10983;51.982;9.226;2022-10-31T04:29:57;65387.91;;;-139.23;100.00
21644;BME280;10983;51.982;9.226;2022-10-31T04:32:29;65387.91;;;-139.23;100.00
21644;BME280;10983;51.982;9.226;2022-10-31T04:35:00;65387.91;;;-139.23;100.00
21644;BME280;10983;51.982;9.226;2022-10-31T04:37:28;65387.91;;;-139.23;100.00
21644;BME280;10983;51.982;9.226;2022-10-31T04:39:59;65387.91;;;-139.23;100.00
21644;BME280;10983;51.982;9.226;2022-10-31T04:42:30;65387.91;;;-139.23;100.00
21644;BME280;10983;51.982;9.226;2022-10-31T04:44:58;65387.91;;;-139.23;100.00
21644;BME280;10983;51.982;9.226;2022-10-31T04:47:26;65387.91;;;-139.23;100.00
21644;BME280;10983;51.982;9.226;2022-10-31T04:49:53;65387.91;;;-139.23;100.00
21644;BME280;10983;51.982;9.226;2022-10-31T04:52:23;65387.91;;;-139.23;100.00
21644;BME280;10983;51.982;9.226;2022-10-31T04:54:52;65387.91;;;-139.23;100.00
21644;BME280;10983;51.982;9.226;2022-10-31T04:57:20;65387.91;;;-139.23;100.00
21644;BME280;10983;51.982;9.226;2022-10-31T04:59:50;65387.91;;;-139.23;100.00
21644;BME280;10983;51.982;9.226;2022-10-31T05:02:18;65387.91;;;-139.23;100.00
21644;BME280;10983;51.982;9.226;2022-10-31T05:04:46;65387.91;;;-139.23;100.00
21644;BME280;10983;51.982;9.226;2022-10-31T05:07:15;65387.91;;;-139.23;100.00
21644;BME280;10983;51.982;9.226;2022-10-31T05:09:42;65387.91;;;-139.23;100.00
21644;BME280;10983;51.982;9.226;2022-10-31T05:12:11;65387.91;;;-139.23;100.00
21644;BME280;10983;51.982;9.226;2022-10-31T05:14:39;65387.91;;;-139.23;100.00
21644;BME280;10983;51.982;9.226;2022-10-31T05:17:11;65387.91;;;-139.23;100.00
21644;BME280;10983;51.982;9.226;2022-10-31T05:19:41;65387.91;;;-139.23;100.00
21644;BME280;10983;51.982;9.226;2022-10-31T05:22:08;65387.91;;;-139.23;100.00
21644;BME280;10983;51.982;9.226;2022-10-31T05:24:36;65387.91;;;-139.23;100.00
21644;BME280;10983;51.982;9.226;2022-10-31T05:27:04;65387.91;;;-139.23;100.00
21644;BME280;10983;51.982;9.226;2022-10-31T05:29:32;65387.91;;;-139.23;100.00
21644;BME280;10983;51.982;9.226;2022-10-31T05:32:00;65387.91;;;-139.23;100.00
21644;BME280;10983;51.982;9.226;2022-10-31T05:34:27;65387.91;;;-139.23;100.00
21644;BME280;10983;51.982;9.226;2022-10-31T05:36:55;65387.91;;;-139.23;100.00
21644;BME280;10983;51.982;9.226;2022-10-31T05:39:22;65387.91;;;-139.23;100.00
21644;BME280;10983;51.982;9.226;2022-10-31T05:41:50;65387.91;;;-139.23;100.00
21644;BME280;10983;51.982;9.226;2022-10-31T05:44:17;65387.91;;;-139.23;100.00
21644;BME280;10983;51.982;9.226;2022-10-31T05:46:47;65387.91;;;-139.23;100.00
21644;BME280;10983;51.982;9.226;2022-10-31T05:49:14;65387.91;;;-139.23;100.00
21644;BME280;10983;51.982;9.226;2022-10-31T05:51:44;65387.91;;;-139.23;100.00
21644;BME280;10983;51.982;9.226;2022-10-31T05:54:12;65387.91;;;-139.23;100.00
21644;BME280;10983;51.982;9.226;2022-10-31T05:56:41;65387.91;;;-139.23;100.00
21644;BME280;10983;51.982;9.226;2022-10-31T05:59:09;65387.91;;;-139.23;100.00
21644;BME280;10983;51.982;9.226;2022-10-31T06:01:36;65387.91;;;-139.23;100.00
21644;BME280;10983;51.982;9.226;2022-10-31T06:04:05;65387.91;;;-139.23;100.00
21644;BME280;10983;51.982;9.226;2022-10-31T06:06:33;65387.91;;;-139.23;100.00
21644;BME280;10983;51.982;9.226;2022-10-31T06:09:01;65387.91;;;-139.23;100.00
21644;BME280;10983;51.982;9.226;2022-10-31T06:11:28;65387.91;;;-139.23;100.00
21644;BME280;10983;51.982;9.226;2022-10-31T06:13:57;65387.91;;;-139.23;100.00
21644;BME280;10983;51.982;9.226;2022-10-31T06:16:24;65387.91;;;-139.23;100.00
21644;BME280;10983;51.982;9.226;2022-10-31T06:18:52;65387.91;;;-139.23;100.00
21644;BME280;10983;51.982;9.226;2022-10-31T06:21:22;65387.91;;;-139.23;100.00
21644;BME280;10983;51.982;9.226;2022-10-31T06:23:51;65387.91;;;-139.23;100.00
21644;BME280;10983;51.982;9.226;2022-10-31T06:26:18;65387.91;;;-139.23;100.00
21644;BME280;10983;51.982;9.226;2022-10-31T06:28:49;65387.91;;;-139.23;100.00
21644;BME280;10983;51.982;9.226;2022-10-31T06:31:17;65387.91;;;-139.23;100.00
21644;BME280;10983;51.982;9.226;2022-10-31T06:33:44;65387.91;;;-139.23;100.00
21644;BME280;10983;51.982;9.226;2022-10-31T06:36:12;65387.91;;;-139.23;100.00
21644;BME280;10983;51.982;9.226;2022-10-31T06:38:41;65387.91;;;-139.23;100.00
21644;BME280;10983;51.982;9.226;2022-10-31T06:41:08;65387.91;;;-139.23;100.00
21644;BME280;10983;51.982;9.226;2022-10-31T06:43:36;65387.91;;;-139.23;100.00
21644;BME280;10983;51.982;9.226;2022-10-31T06:46:05;65387.91;;;-139.23;100.00
21644;BME280;10983;51.982;9.226;2022-10-31T06:48:32;65387.91;;;-139.23;100.00
21644;BME280;10983;51.982;9.226;2022-10-31T06:51:01;65387.91;;;-139.23;100.00
21644;BME280;10983;51.982;9.226;2022-10-31T06:53:29;65387.91;;;-139.23;100.00
21644;BME280;10983;51.982;9.226;2022-10-31T06:55:58;65387.91;;;-139.23;100.00
21644;BME280;10983;51.982;9.226;2022-10-31T06:58:30;65387.91;;;-139.23;100.00
21644;BME280;10983;51.982;9.226;2022-10-31T07:01:00;65387.91;;;-139.23;100.00
21644;BME280;10983;51.982;9.226;2022-10-31T07:03:28;65387.91;;;-139.23;100.00
21644;BME280;10983;51.982;9.226;2022-10-31T07:05:56;65387.91;;;-139.23;100.00
21644;BME280;10983;51.982;9.226;2022-10-31T07:08:24;65387.91;;;-139.23;100.00
21644;BME280;10983;51.982;9.226;2022-10-31T07:10:54;65387.91;;;-139.23;100.00
21644;BME280;10983;51.982;9.226;2022-10-31T07:13:24;65387.91;;;-139.23;100.00
21644;BME280;10983;51.982;9.226;2022-10-31T07:15:52;65387.91;;;-139.23;100.00
21644;BME280;10983;51.982;9.226;2022-10-31T07:18:22;65387.91;;;-139.23;100.00
21644;BME280;10983;51.982;9.226;2022-10-31T07:20:51;65387.91;;;-139.23;100.00
21644;BME280;10983;51.982;9.226;2022-10-31T07:23:19;65387.91;;;-139.23;100.00
21644;BME280;10983;51.982;9.226;2022-10-31T07:25:46;65387.91;;;-139.23;100.00
21644;BME280;10983;51.982;9.226;2022-10-31T07:29:14;65387.91;;;-139.23;100.00
21644;BME280;10983;51.982;9.226;2022-10-31T07:31:45;100502.78;;;15.46;100.00
21644;BME280;10983;51.982;9.226;2022-10-31T07:34:13;100502.78;;;-139.23;100.00
21644;BME280;10983;51.982;9.226;2022-10-31T07:36:43;100502.78;;;15.46;100.00
21644;BME280;10983;51.982;9.226;2022-10-31T07:39:10;65387.91;;;-139.23;100.00
21644;BME280;10983;51.982;9.226;2022-10-31T07:41:38;100502.78;;;15.46;100.00
21644;BME280;10983;51.982;9.226;2022-10-31T07:44:07;65387.91;;;-139.23;100.00
21644;BME280;10983;51.982;9.226;2022-10-31T07:46:40;68927.03;;;-139.23;100.00
21644;BME280;10983;51.982;9.226;2022-10-31T07:49:18;65387.91;;;-139.23;100.00
21644;BME280;10983;51.982;9.226;2022-10-31T07:51:54;65387.91;;;-139.23;100.00
21644;BME280;10983;51.982;9.226;2022-10-31T07:54:22;65387.91;;;-139.23;100.00
21644;BME280;10983;51.982;9.226;2022-10-31T07:56:50;65387.91;;;-139.23;100.00
21644;BME280;10983;51.982;9.226;2022-10-31T07:59:20;65387.91;;;-139.23;100.00
21644;BME280;10983;51.982;9.226;2022-10-31T08:01:55;65387.91;;;-139.23;100.00
21644;BME280;10983;51.982;9.226;2022-10-31T08:04:23;56455.56;;;23.04;100.00
21644;BME280;10983;51.982;9.226;2022-10-31T08:06:51;65387.91;;;-139.23;100.00
21644;BME280;10983;51.982;9.226;2022-10-31T08:09:18;65387.91;;;-139.23;100.00
21644;BME280;10983;51.982;9.226;2022-10-31T08:11:46;65387.91;;;-139.23;100.00
21644;BME280;10983;51.982;9.226;2022-10-31T08:14:13;65387.91;;;-139.23;100.00
21644;BME280;10983;51.982;9.226;2022-10-31T08:16:43;65387.91;;;-139.23;100.00
21644;BME280;10983;51.982;9.226;2022-10-31T08:19:12;65387.91;;;-139.23;100.00
21644;BME280;10983;51.982;9.226;2022-10-31T08:21:40;65387.91;;;-139.23;100.00
21644;BME280;10983;51.982;9.226;2022-10-31T08:24:08;65387.91;;;-139.23;100.00
21644;BME280;10983;51.982;9.226;2022-10-31T08:26:36;65387.91;;;-139.23;100.00
21644;BME280;10983;51.982;9.226;2022-10-31T08:29:04;65387.91;;;-139.23;100.00
21644;BME280;10983;51.982;9.226;2022-10-31T08:31:31;65387.91;;;-139.23;100.00
21644;BME280;10983;51.982;9.226;2022-10-31T08:34:04;65387.91;;;-139.23;100.00
21644;BME280;10983;51.982;9.226;2022-10-31T08:36:33;65387.91;;;-139.23;100.00
21644;BME280;10983;51.982;9.226;2022-10-31T08:39:01;65387.91;;;-139.23;100.00
21644;BME280;10983;51.982;9.226;2022-10-31T08:41:29;65387.91;;;-139.23;100.00
21644;BME280;10983;51.982;9.226;2022-10-31T08:43:56;65387.91;;;-139.23;100.00
21644;BME280;10983;51.982;9.226;2022-10-31T08:46:24;100834.69;;;13.24;100.00
21644;BME280;10983;51.982;9.226;2022-10-31T08:48:51;65387.91;;;-139.23;100.00
21644;BME280;10983;51.982;9.226;2022-10-31T08:51:19;65387.91;;;-139.23;100.00
21644;BME280;10983;51.982;9.226;2022-10-31T08:53:53;65387.91;;;-139.23;100.00
21644;BME280;10983;51.982;9.226;2022-10-31T08:57:14;65387.91;;;-139.23;100.00
21644;BME280;10983;51.982;9.226;2022-10-31T09:00:25;65387.91;;;-139.23;100.00
21644;BME280;10983;51.982;9.226;2022-10-31T09:03:01;65387.91;;;-139.23;100.00
21644;BME280;10983;51.982;9.226;2022-10-31T09:05:29;65387.91;;;-139.23;100.00
21644;BME280;10983;51.982;9.226;2022-10-31T09:07:57;65387.91;;;-139.23;100.00
21644;BME280;10983;51.982;9.226;2022-10-31T09:10:28;65387.91;;;-139.23;100.00
21644;BME280;10983;51.982;9.226;2022-10-31T09:12:56;65387.91;;;-139.23;100.00
21644;BME280;10983;51.982;9.226;2022-10-31T09:15:25;20039.53;;;-139.23;100.00
21644;BME280;10983;51.982;9.226;2022-10-31T09:17:52;100903.72;;;16.08;100.00
21644;BME280;10983;51.982;9.226;2022-10-31T09:20:20;100900.53;;;16.43;100.00
21644;BME280;10983;51.982;9.226;2022-10-31T09:22:55;100895.13;;;16.60;100.00
21644;BME280;10983;51.982;9.226;2022-10-31T09:25:23;100910.81;;;16.68;100.00
21644;BME280;10983;51.982;9.226;2022-10-31T09:27:55;100901.91;;;17.10;100.00
21644;BME280;10983;51.982;9.226;2022-10-31T09:30:24;100903.31;;;17.39;100.00
21644;BME280;10983;51.982;9.226;2022-10-31T09:32:54;100904.25;;;16.80;100.00
21644;BME280;10983;51.982;9.226;2022-10-31T09:35:22;100904.84;;;17.61;100.00
21644;BME280;10983;51.982;9.226;2022-10-31T09:37:54;100897.25;;;17.84;100.00
21644;BME280;10983;51.982;9.226;2022-10-31T09:40:30;100900.28;;;17.93;100.00
21644;BME280;10983;51.982;9.226;2022-10-31T09:43:06;100899.09;;;18.15;100.00
21644;BME280;10983;51.982;9.226;2022-10-31T09:45:44;100915.84;;;18.17;100.00
21644;BME280;10983;51.982;9.226;2022-10-31T09:48:25;100924.63;;;18.44;100.00
21644;BME280;10983;51.982;9.226;2022-10-31T09:50:58;100931.31;;;18.87;100.00
21644;BME280;10983;51.982;9.226;2022-10-31T09:53:32;100951.78;;;19.59;100.00
21644;BME280;10983;51.982;9.226;2022-10-31T09:56:04;100970.75;;;20.09;100.00
21644;BME280;10983;51.982;9.226;2022-10-31T09:58:39;101013.16;;;20.28;100.00
21644;BME280;10983;51.982;9.226;2022-10-31T10:01:17;101067.72;;;20.20;100.00
21644;BME280;10983;51.982;9.226;2022-10-31T10:03:50;101092.59;;;20.27;100.00
21644;BME280;10983;51.982;9.226;2022-10-31T10:06:24;101132.56;;;20.20;100.00
21644;BME280;10983;51.982;9.226;2022-10-31T10:08:53;101136.94;;;20.36;100.00
21644;BME280;10983;51.982;9.226;2022-10-31T10:11:32;101138.03;;;20.55;100.00
21644;BME280;10983;51.982;9.226;2022-10-31T10:14:15;101142.09;;;21.17;100.00
21644;BME280;10983;51.982;9.226;2022-10-31T10:17:02;101186.19;;;21.17;100.00
21644;BME280;10983;51.982;9.226;2022-10-31T10:19:46;101202.63;;;21.41;100.00
21644;BME280;10983;51.982;9.226;2022-10-31T10:22:24;101205.78;;;21.87;100.00
21644;BME280;10983;51.982;9.226;2022-10-31T10:25:02;101227.06;;;22.23;100.00
21644;BME280;10983;51.982;9.226;2022-10-31T10:27:43;101159.03;;;22.25;100.00
21644;BME280;10983;51.982;9.226;2022-10-31T10:30:15;101160.09;;;22.24;100.00
21644;BME280;10983;51.982;9.226;2022-10-31T10:32:46;101142.69;;;22.35;100.00
21644;BME280;10983;51.982;9.226;2022-10-31T10:35:22;101163.63;;;22.29;100.00
21644;BME280;10983;51.982;9.226;2022-10-31T10:37:56;101184.03;;;22.98;100.00
21644;BME280;10983;51.982;9.226;2022-10-31T10:40:28;101202.81;;;23.74;100.00
21644;BME280;10983;51.982;9.226;2022-10-31T10:43:01;101164.00;;;23.46;100.00
21644;BME280;10983;51.982;9.226;2022-10-31T10:45:53;101193.00;;;23.78;100.00
21644;BME280;10983;51.982;9.226;2022-10-31T10:48:45;101193.78;;;24.62;100.00
21644;BME280;10983;51.982;9.226;2022-10-31T10:51:20;101148.91;;;25.10;100.00
21644;BME280;10983;51.982;9.226;2022-10-31T10:54:35;101001.84;;;24.96;100.00
21644;BME280;10983;51.982;9.226;2022-10-31T10:57:13;100791.13;;;24.84;100.00
21644;BME280;10983;51.982;9.226;2022-10-31T10:59:44;100648.81;;;24.62;100.00
21644;BME280;10983;51.982;9.226;2022-10-31T11:02:18;100511.84;;;25.35;100.00
21644;BME280;10983;51.982;9.226;2022-10-31T11:04:50;100441.75;;;25.10;100.00
21644;BME280;10983;51.982;9.226;2022-10-31T11:07:20;100343.38;;;25.96;100.00
21644;BME280;10983;51.982;9.226;2022-10-31T11:09:47;100211.75;;;27.46;100.00
21644;BME280;10983;51.982;9.226;2022-10-31T11:12:21;100150.38;;;29.91;100.00
21644;BME280;10983;51.982;9.226;2022-10-31T11:14:51;100323.97;;;31.33;100.00
21644;BME280;10983;51.982;9.226;2022-10-31T11:17:26;100339.81;;;29.04;100.00
21644;BME280;10983;51.982;9.226;2022-10-31T11:20:25;100235.88;;;28.84;100.00
21644;BME280;10983;51.982;9.226;2022-10-31T11:23:02;100169.13;;;27.77;100.00
21644;BME280;10983;51.982;9.226;2022-10-31T11:25:31;100119.22;;;27.57;100.00
21644;BME280;10983;51.982;9.226;2022-10-31T11:28:00;100077.59;;;27.39;100.00
21644;BME280;10983;51.982;9.226;2022-10-31T11:30:28;100075.56;;;27.24;100.00
21644;BME280;10983;51.982;9.226;2022-10-31T11:32:58;100068.28;;;27.52;100.00
21644;BME280;10983;51.982;9.226;2022-10-31T11:35:26;100105.78;;;28.50;100.00
21644;BME280;10983;51.982;9.226;2022-10-31T11:37:58;100109.28;;;28.00;100.00
21644;BME280;10983;51.982;9.226;2022-10-31T11:40:28;100162.03;;;28.87;100.00
21644;BME280;10983;51.982;9.226;2022-10-31T11:42:57;100203.31;;;29.49;100.00
21644;BME280;10983;51.982;9.226;2022-10-31T11:45:29;100258.88;;;29.46;100.00
21644;BME280;10983;51.982;9.226;2022-10-31T11:48:00;100266.69;;;29.32;100.00
21644;BME280;10983;51.982;9.226;2022-10-31T11:50:34;100285.44;;;30.46;100.00
21644;BME280;10983;51.982;9.226;2022-10-31T11:53:04;100384.19;;;31.38;100.00
21644;BME280;10983;51.982;9.226;2022-10-31T11:55:39;100387.28;;;30.87;100.00
21644;BME280;10983;51.982;9.226;2022-10-31T11:58:20;100507.81;;;32.37;100.00
21644;BME280;10983;51.982;9.226;2022-10-31T12:00:50;100558.56;;;33.89;100.00
21644;BME280;10983;51.982;9.226;2022-10-31T12:03:28;100580.47;;;34.01;100.00
21644;BME280;10983;51.982;9.226;2022-10-31T12:06:00;100595.50;;;34.62;100.00
21644;BME280;10983;51.982;9.226;2022-10-31T12:08:31;100611.38;;;34.39;100.00
21644;BME280;10983;51.982;9.226;2022-10-31T12:11:03;100596.50;;;33.92;100.00
21644;BME280;10983;51.982;9.226;2022-10-31T12:13:37;100527.03;;;32.34;100.00
21644;BME280;10983;51.982;9.226;2022-10-31T12:16:11;100506.72;;;32.41;100.00
21644;BME280;10983;51.982;9.226;2022-10-31T12:18:52;100506.16;;;32.14;100.00
21644;BME280;10983;51.982;9.226;2022-10-31T12:21:34;100483.06;;;31.65;100.00
21644;BME280;10983;51.982;9.226;2022-10-31T12:24:13;100404.84;;;30.09;100.00
21644;BME280;10983;51.982;9.226;2022-10-31T12:26:52;100290.75;;;29.26;100.00
21644;BME280;10983;51.982;9.226;2022-10-31T12:29:32;100214.00;;;28.72;100.00
21644;BME280;10983;51.982;9.226;2022-10-31T12:32:27;100111.59;;;27.86;100.00
21644;BME280;10983;51.982;9.226;2022-10-31T12:35:13;100100.66;;;28.49;100.00
21644;BME280;10983;51.982;9.226;2022-10-31T12:38:03;100136.56;;;29.14;100.00
21644;BME280;10983;51.982;9.226;2022-10-31T12:40:47;100240.97;;;30.25;100.00
21644;BME280;10983;51.982;9.226;2022-10-31T12:43:25;100343.25;;;30.99;100.00
21644;BME280;10983;51.982;9.226;2022-10-31T12:45:57;100299.84;;;30.58;100.00
21644;BME280;10983;51.982;9.226;2022-10-31T12:48:38;100279.94;;;29.84;100.00
21644;BME280;10983;51.982;9.226;2022-10-31T12:51:15;100220.56;;;29.49;100.00
21644;BME280;10983;51.982;9.226;2022-10-31T12:53:55;100151.75;;;29.11;100.00
21644;BME280;10983;51.982;9.226;2022-10-31T12:56:39;100170.38;;;29.33;100.00
21644;BME280;10983;51.982;9.226;2022-10-31T12:59:19;100165.94;;;29.13;100.00
21644;BME280;10983;51.982;9.226;2022-10-31T13:01:52;100137.63;;;29.09;100.00
21644;BME280;10983;51.982;9.226;2022-10-31T13:04:36;100141.41;;;29.32;100.00
21644;BME280;10983;51.982;9.226;2022-10-31T13:07:10;100132.16;;;28.82;100.00
21644;BME280;10983;51.982;9.226;2022-10-31T13:09:43;100132.16;;;28.82;100.00
21644;BME280;10983;51.982;9.226;2022-10-31T13:12:15;65387.91;;;-139.23;100.00
21644;BME280;10983;51.982;9.226;2022-10-31T13:14:46;65387.91;;;-139.23;100.00
21644;BME280;10983;51.982;9.226;2022-10-31T13:17:22;65387.91;;;-139.23;100.00